createdAt,value
2019-05-09T00:02:15.390Z,93854.81
2019-05-09T00:04:44.947Z,93860.19
2019-05-09T00:07:15.542Z,93857.16
2019-05-09T00:10:38.386Z,93850.06
2019-05-09T00:13:09.288Z,93859.35
2019-05-09T00:15:38.828Z,93846.52
2019-05-09T00:18:27.695Z,93846.03
2019-05-09T00:21:13.317Z,93845.67
2019-05-09T00:23:43.699Z,93844.23
2019-05-09T00:26:13.556Z,93841.98
2019-05-09T00:28:45.282Z,93835.87
2019-05-09T00:31:16.443Z,93838.08
2019-05-09T00:33:48.297Z,93836.83
2019-05-09T00:36:18.080Z,93841.73
2019-05-09T00:38:47.635Z,93840.98
2019-05-09T00:41:17.144Z,93830.66
2019-05-09T00:43:48.285Z,93824.06
2019-05-09T00:46:19.459Z,93827.73
2019-05-09T00:48:54.794Z,93824.33
2019-05-09T00:51:24.394Z,93817.36
2019-05-09T00:53:53.902Z,93820.16
2019-05-09T00:56:24.065Z,93817.11
2019-05-09T00:58:53.852Z,93821.84
2019-05-09T01:01:24.323Z,93815.42
2019-05-09T01:03:53.943Z,93821.02
2019-05-09T01:06:24.161Z,93821.16
2019-05-09T01:08:54.041Z,93813.50
2019-05-09T01:11:24.416Z,93815.74
2019-05-09T01:13:54.554Z,93819.41
2019-05-09T01:16:24.455Z,93816.91
2019-05-09T01:18:54.730Z,93810.95
2019-05-09T01:21:24.346Z,93815.41
2019-05-09T01:23:54.264Z,93807.38
2019-05-09T01:26:24.348Z,93817.05
2019-05-09T01:28:54.310Z,93822.30
2019-05-09T01:31:24.444Z,93825.55
2019-05-09T01:34:13.089Z,93822.78
2019-05-09T01:36:55.668Z,93826.25
2019-05-09T01:39:25.189Z,93830.11
2019-05-09T01:41:54.696Z,93831.39
2019-05-09T01:44:24.225Z,93843.75
2019-05-09T01:46:54.129Z,93854.44
2019-05-09T01:49:23.735Z,93839.05
2019-05-09T01:51:53.818Z,93824.92
2019-05-09T01:54:25.343Z,93825.75
2019-05-09T01:56:54.852Z,93824.98
2019-05-09T01:59:25.185Z,93828.45
2019-05-09T02:01:54.893Z,93823.67
2019-05-09T02:04:24.501Z,93819.27
2019-05-09T02:06:54.071Z,93821.39
2019-05-09T02:09:23.681Z,93816.50
2019-05-09T02:11:54.576Z,93822.28
2019-05-09T02:14:31.674Z,93818.86
2019-05-09T02:17:18.698Z,93815.25
2019-05-09T02:19:48.298Z,93813.97
2019-05-09T02:22:37.001Z,93813.74
2019-05-09T02:25:09.129Z,93812.20
2019-05-09T02:27:38.652Z,93802.28
2019-05-09T02:30:14.640Z,93809.69
2019-05-09T02:32:44.756Z,93814.62
2019-05-09T02:35:13.473Z,93812.78
2019-05-09T02:37:43.009Z,93806.58
2019-05-09T02:40:12.964Z,93796.52
2019-05-09T02:42:42.467Z,93793.47
2019-05-09T02:45:12.723Z,93786.75
2019-05-09T02:47:42.251Z,93793.20
2019-05-09T02:50:12.198Z,93790.09
2019-05-09T02:52:41.736Z,93793.81
2019-05-09T02:55:11.484Z,93796.50
2019-05-09T02:57:41.151Z,93797.93
2019-05-09T03:00:29.039Z,93796.26
2019-05-09T03:03:19.550Z,93807.31
2019-05-09T03:06:09.183Z,93798.88
2019-05-09T03:08:38.468Z,93795.48
2019-05-09T03:11:09.846Z,93793.32
2019-05-09T03:13:39.717Z,93792.06
2019-05-09T03:16:11.018Z,93793.24
2019-05-09T03:18:40.562Z,93788.92
2019-05-09T03:21:29.831Z,93790.02
2019-05-09T03:23:59.400Z,93793.56
2019-05-09T03:26:33.392Z,93792.88
2019-05-09T03:29:14.394Z,93794.06
2019-05-09T03:31:44.993Z,93788.97
2019-05-09T03:34:14.535Z,93788.17
2019-05-09T03:36:44.051Z,93781.57
2019-05-09T03:39:13.578Z,93781.50
2019-05-09T03:41:43.164Z,93779.70
2019-05-09T03:44:12.702Z,93774.13
2019-05-09T03:46:52.593Z,93774.52
2019-05-09T03:49:23.790Z,93775.45
2019-05-09T03:51:53.310Z,93764.28
2019-05-09T03:54:22.840Z,93766.27
2019-05-09T03:57:07.688Z,93766.64
2019-05-09T03:59:38.096Z,93770.87
2019-05-09T04:02:10.168Z,93776.23
2019-05-09T04:04:39.055Z,93769.62
2019-05-09T04:07:08.598Z,93774.06
2019-05-09T04:09:39.809Z,93781.27
2019-05-09T04:12:09.384Z,93780.58
2019-05-09T04:14:39.078Z,93787.32
2019-05-09T04:17:10.246Z,93782.77
2019-05-09T04:19:40.524Z,93780.09
2019-05-09T04:22:10.193Z,93792.16
2019-05-09T04:24:39.722Z,93788.70
2019-05-09T04:27:10.889Z,93785.53
2019-05-09T04:29:40.393Z,93774.92
2019-05-09T04:32:09.926Z,93783.77
2019-05-09T04:34:39.443Z,93774.87
2019-05-09T04:37:12.050Z,93776.02
2019-05-09T04:39:40.684Z,93785.41
2019-05-09T04:42:10.330Z,93782.44
2019-05-09T04:44:41.471Z,93791.54
2019-05-09T04:47:10.998Z,93789.87
2019-05-09T04:49:45.017Z,93789.41
2019-05-09T04:52:11.750Z,93788.59
2019-05-09T04:54:41.342Z,93790.84
2019-05-09T04:57:10.879Z,93798.88
2019-05-09T04:59:40.395Z,93795.91
2019-05-09T05:02:21.365Z,93799.93
2019-05-09T05:04:50.900Z,93798.63
2019-05-09T05:07:20.732Z,93798.30
2019-05-09T05:09:50.238Z,93805.27
2019-05-09T05:12:19.755Z,93801.72
2019-05-09T05:14:49.273Z,93788.98
2019-05-09T05:17:18.807Z,93788.45
2019-05-09T05:19:49.188Z,93789.33
2019-05-09T05:22:20.357Z,93783.87
2019-05-09T05:24:55.259Z,93788.07
2019-05-09T05:27:22.797Z,93780.81
2019-05-09T05:29:52.313Z,93780.26
2019-05-09T05:32:23.482Z,93787.00
2019-05-09T05:34:58.546Z,93779.56
2019-05-09T05:37:28.736Z,93786.12
2019-05-09T05:39:58.471Z,93792.59
2019-05-09T05:42:28.380Z,93790.59
2019-05-09T05:44:58.354Z,93787.30
2019-05-09T05:47:38.751Z,93760.30
2019-05-09T05:50:09.521Z,93744.75
2019-05-09T05:52:39.035Z,93746.05
2019-05-09T05:55:09.018Z,93749.70
2019-05-09T05:57:38.749Z,93745.00
2019-05-09T06:00:10.834Z,93747.70
2019-05-09T06:02:40.353Z,93751.00
2019-05-09T06:05:09.876Z,93753.88
2019-05-09T06:07:39.405Z,93756.13
2019-05-09T06:10:09.009Z,93747.73
2019-05-09T06:12:38.527Z,93755.92
2019-05-09T06:15:08.508Z,93746.53
2019-05-09T06:17:38.194Z,93745.20
2019-05-09T06:20:09.149Z,93750.45
2019-05-09T06:22:38.697Z,93757.91
2019-05-09T06:25:09.637Z,93753.35
2019-05-09T06:27:42.284Z,93756.50
2019-05-09T06:30:11.303Z,93750.86
2019-05-09T06:32:40.836Z,93752.52
2019-05-09T06:35:15.050Z,93739.45
2019-05-09T06:37:44.667Z,93746.16
2019-05-09T06:40:21.420Z,93747.23
2019-05-09T06:42:50.360Z,93752.77
2019-05-09T06:45:41.383Z,93739.27
2019-05-09T06:48:09.272Z,93735.31
2019-05-09T06:50:38.838Z,93739.94
2019-05-09T06:53:08.380Z,93729.84
2019-05-09T06:55:38.511Z,93732.03
2019-05-09T06:58:27.705Z,93728.22
2019-05-09T07:01:11.611Z,93731.06
2019-05-09T07:03:45.431Z,93729.88
2019-05-09T07:06:17.819Z,93719.73
2019-05-09T07:08:47.717Z,93720.14
2019-05-09T07:11:19.207Z,93738.05
2019-05-09T07:13:49.016Z,93724.48
2019-05-09T07:16:18.845Z,93714.52
2019-05-09T07:18:48.599Z,93719.08
2019-05-09T07:21:19.005Z,93715.90
2019-05-09T07:23:48.682Z,93707.52
2019-05-09T07:26:22.994Z,93715.80
2019-05-09T07:28:52.513Z,93718.52
2019-05-09T07:31:29.508Z,93712.86
2019-05-09T07:34:08.387Z,93711.02
2019-05-09T07:36:38.391Z,93717.41
2019-05-09T07:39:09.048Z,93705.25
2019-05-09T07:41:38.616Z,93714.59
2019-05-09T07:44:08.142Z,93703.09
2019-05-09T07:46:39.285Z,93712.73
2019-05-09T07:49:09.164Z,93708.23
2019-05-09T07:51:38.688Z,93706.40
2019-05-09T07:54:21.148Z,93700.59
2019-05-09T07:56:39.461Z,93699.23
2019-05-09T07:59:08.982Z,93704.64
2019-05-09T08:01:38.648Z,93700.52
2019-05-09T08:04:08.255Z,93702.59
2019-05-09T08:06:38.119Z,93699.70
2019-05-09T08:09:08.621Z,93700.77
2019-05-09T08:11:38.172Z,93701.03
2019-05-09T08:14:08.632Z,93709.84
2019-05-09T08:16:39.022Z,93702.25
2019-05-09T08:19:08.536Z,93699.06
2019-05-09T08:21:38.476Z,93698.36
2019-05-09T08:24:08.859Z,93693.13
2019-05-09T08:26:39.508Z,93690.80
2019-05-09T08:29:09.568Z,93693.66
2019-05-09T08:31:40.355Z,93694.98
2019-05-09T08:34:10.070Z,93689.51
2019-05-09T08:36:39.669Z,93687.66
2019-05-09T08:39:09.976Z,93682.41
2019-05-09T08:41:39.483Z,93687.43
2019-05-09T08:44:09.095Z,93679.91
2019-05-09T08:46:38.610Z,93678.53
2019-05-09T08:49:08.414Z,93673.22
2019-05-09T08:52:10.209Z,93673.16
2019-05-09T08:54:42.696Z,93678.36
2019-05-09T08:57:12.375Z,93676.77
2019-05-09T08:59:41.892Z,93671.12
2019-05-09T09:02:15.857Z,93673.68
2019-05-09T09:04:42.667Z,93668.08
2019-05-09T09:07:12.895Z,93673.52
2019-05-09T09:09:42.412Z,93663.30
2019-05-09T09:12:26.069Z,93668.16
2019-05-09T09:14:43.117Z,93661.02
2019-05-09T09:17:12.613Z,93660.55
2019-05-09T09:19:42.090Z,93661.41
2019-05-09T09:22:11.581Z,93655.81
2019-05-09T09:24:41.143Z,93656.11
2019-05-09T09:27:10.619Z,93650.55
2019-05-09T09:29:40.108Z,93643.67
2019-05-09T09:32:09.588Z,93633.34
2019-05-09T09:34:39.067Z,93631.09
2019-05-09T09:37:11.487Z,93640.51
2019-05-09T09:39:44.297Z,93638.93
2019-05-09T09:42:10.990Z,93623.02
2019-05-09T09:44:40.481Z,93633.34
2019-05-09T09:47:10.047Z,93647.20
2019-05-09T09:49:39.632Z,93626.68
2019-05-09T09:52:09.353Z,93625.23
2019-05-09T09:54:38.930Z,93625.92
2019-05-09T09:57:09.696Z,93622.14
2019-05-09T09:59:48.117Z,93630.90
2019-05-09T10:02:21.227Z,93628.39
2019-05-09T10:04:50.693Z,93622.24
2019-05-09T10:07:20.260Z,93633.97
2019-05-09T10:09:49.793Z,93633.59
2019-05-09T10:12:19.232Z,93637.75
2019-05-09T10:14:50.372Z,93638.38
2019-05-09T10:17:38.686Z,93644.06
2019-05-09T10:20:29.165Z,93642.78
2019-05-09T10:23:09.003Z,93643.30
2019-05-09T10:25:29.460Z,93642.20
2019-05-09T10:27:58.964Z,93645.06
2019-05-09T10:30:34.511Z,93645.64
2019-05-09T10:33:04.078Z,93646.73
2019-05-09T10:35:33.572Z,93639.60
2019-05-09T10:38:03.071Z,93643.55
2019-05-09T10:40:32.633Z,93635.52
2019-05-09T10:43:31.545Z,93646.19
2019-05-09T10:46:04.360Z,93640.62
2019-05-09T10:48:33.837Z,93647.23
2019-05-09T10:51:05.997Z,93643.86
2019-05-09T10:53:34.600Z,93652.68
2019-05-09T10:56:04.100Z,93656.77
2019-05-09T10:58:33.600Z,93656.11
2019-05-09T11:01:03.121Z,93670.33
2019-05-09T11:03:32.694Z,93666.86
2019-05-09T11:06:02.215Z,93668.93
2019-05-09T11:08:31.711Z,93675.44
2019-05-09T11:11:01.220Z,93681.19
2019-05-09T11:13:30.714Z,93695.67
2019-05-09T11:16:00.206Z,93696.52
2019-05-09T11:18:29.696Z,93699.98
2019-05-09T11:20:59.181Z,93691.16
2019-05-09T11:23:29.286Z,93697.23
2019-05-09T11:25:58.739Z,93702.70
2019-05-09T11:28:28.644Z,93709.30
2019-05-09T11:31:18.662Z,93723.62
2019-05-09T11:34:01.613Z,93666.33
2019-05-09T11:36:31.109Z,93581.69
2019-05-09T11:39:00.953Z,93741.03
2019-05-09T11:41:30.545Z,93747.47
2019-05-09T11:44:00.119Z,93749.94
2019-05-09T11:46:29.641Z,93744.14
2019-05-09T11:48:59.698Z,93749.02
2019-05-09T11:51:29.628Z,93741.23
2019-05-09T11:53:59.242Z,93726.15
2019-05-09T11:56:29.377Z,93713.57
2019-05-09T11:58:58.869Z,93681.83
2019-05-09T12:01:29.319Z,93677.71
2019-05-09T12:03:58.932Z,93684.92
2019-05-09T12:06:29.314Z,93690.27
2019-05-09T12:08:59.164Z,93692.41
2019-05-09T12:11:48.502Z,93680.73
2019-05-09T12:14:32.190Z,93658.63
2019-05-09T12:17:01.759Z,93685.44
2019-05-09T12:19:31.250Z,93683.25
2019-05-09T12:22:00.805Z,93690.92
2019-05-09T12:24:30.318Z,93677.93
2019-05-09T12:27:02.848Z,93677.63
2019-05-09T12:29:30.982Z,93683.13
2019-05-09T12:32:00.470Z,93679.75
2019-05-09T12:34:29.979Z,93676.77
2019-05-09T12:36:59.496Z,93665.38
2019-05-09T12:39:28.993Z,93668.91
2019-05-09T12:41:58.463Z,93669.00
2019-05-09T12:44:28.812Z,93662.68
2019-05-09T12:46:58.442Z,93669.52
2019-05-09T12:49:28.358Z,93666.92
2019-05-09T12:52:18.621Z,93660.83
2019-05-09T12:54:48.568Z,93654.75
2019-05-09T12:57:19.272Z,93657.91
2019-05-09T12:59:52.661Z,93658.00
2019-05-09T13:02:20.278Z,93654.97
2019-05-09T13:04:49.927Z,93660.73
2019-05-09T13:07:19.983Z,93660.54
2019-05-09T13:09:52.594Z,93655.44
2019-05-09T13:12:21.100Z,93656.84
2019-05-09T13:14:50.610Z,93662.66
2019-05-09T13:17:22.110Z,93669.58
2019-05-09T13:19:51.586Z,93667.00
2019-05-09T13:22:21.068Z,93668.95
2019-05-09T13:24:50.566Z,93662.16
2019-05-09T13:27:20.065Z,93664.33
2019-05-09T13:29:49.791Z,93649.20
2019-05-09T13:32:19.277Z,93640.09
2019-05-09T13:34:48.889Z,93627.83
2019-05-09T13:37:18.998Z,93628.59
2019-05-09T13:39:48.740Z,93618.97
2019-05-09T13:42:19.513Z,93627.56
2019-05-09T13:44:49.445Z,93628.03
2019-05-09T13:47:18.941Z,93621.99
2019-05-09T13:49:48.583Z,93613.23
2019-05-09T13:52:18.223Z,93605.09
2019-05-09T13:54:48.407Z,93607.84
2019-05-09T13:57:18.794Z,93607.41
2019-05-09T13:59:48.790Z,93611.80
2019-05-09T14:02:18.998Z,93606.14
2019-05-09T14:04:49.764Z,93611.98
2019-05-09T14:07:19.559Z,93607.70
2019-05-09T14:09:49.124Z,93602.62
2019-05-09T14:12:18.602Z,93608.91
2019-05-09T14:14:48.104Z,93607.70
2019-05-09T14:17:19.212Z,93605.31
2019-05-09T14:19:51.163Z,93617.03
2019-05-09T14:22:20.146Z,93617.45
2019-05-09T14:24:49.733Z,93618.56
2019-05-09T14:27:19.238Z,93621.51
2019-05-09T14:29:49.754Z,93632.02
2019-05-09T14:32:19.404Z,93679.44
2019-05-09T14:35:19.818Z,93699.00
2019-05-09T14:38:02.374Z,93728.58
2019-05-09T14:40:51.335Z,93757.72
2019-05-09T14:43:20.843Z,93757.39
2019-05-09T14:45:50.324Z,93751.28
2019-05-09T14:48:19.826Z,93742.31
2019-05-09T14:50:49.665Z,93755.98
2019-05-09T14:53:19.172Z,93752.85
2019-05-09T14:55:48.670Z,93753.52
2019-05-09T14:58:18.249Z,93754.45
2019-05-09T15:00:48.199Z,93752.73
2019-05-09T15:03:18.955Z,93743.50
2019-05-09T15:05:48.479Z,93744.13
2019-05-09T15:08:18.204Z,93739.12
2019-05-09T15:10:47.715Z,93740.50
2019-05-09T15:13:18.389Z,93743.17
2019-05-09T15:15:48.121Z,93732.28
2019-05-09T15:18:17.738Z,93727.70
2019-05-09T15:20:47.939Z,93738.45
2019-05-09T15:23:19.696Z,93739.10
2019-05-09T15:25:48.605Z,93729.17
2019-05-09T15:28:18.093Z,93730.73
2019-05-09T15:30:48.898Z,93727.52
2019-05-09T15:33:18.543Z,93731.35
2019-05-09T15:35:48.734Z,93725.14
2019-05-09T15:38:18.348Z,93710.35
2019-05-09T15:40:48.269Z,93718.09
2019-05-09T15:43:18.569Z,93715.64
2019-05-09T15:45:49.902Z,93717.27
2019-05-09T15:48:19.393Z,93717.11
2019-05-09T15:50:49.052Z,93716.72
2019-05-09T15:53:18.584Z,93715.78
2019-05-09T15:55:48.164Z,93704.75
2019-05-09T15:58:18.763Z,93714.59
2019-05-09T16:00:48.596Z,93713.48
2019-05-09T16:03:18.664Z,93711.91
2019-05-09T16:05:48.324Z,93717.52
2019-05-09T16:08:18.705Z,93714.66
2019-05-09T16:10:48.288Z,93708.20
2019-05-09T16:13:17.892Z,93699.81
2019-05-09T16:15:48.607Z,93704.34
2019-05-09T16:18:18.298Z,93699.94
2019-05-09T16:20:48.676Z,93701.72
2019-05-09T16:23:19.105Z,93710.25
2019-05-09T16:25:48.623Z,93713.19
2019-05-09T16:28:18.667Z,93707.31
2019-05-09T16:30:59.117Z,93711.22
2019-05-09T16:33:29.854Z,93715.98
2019-05-09T16:35:59.357Z,93714.92
2019-05-09T16:38:42.157Z,93722.70
2019-05-09T16:41:00.060Z,93727.37
2019-05-09T16:43:29.623Z,93728.74
2019-05-09T16:45:59.627Z,93729.50
2019-05-09T16:48:29.119Z,93746.83
2019-05-09T16:51:03.140Z,93748.86
2019-05-09T16:53:29.904Z,93752.71
2019-05-09T16:55:59.400Z,93769.59
2019-05-09T16:58:28.891Z,93763.69
2019-05-09T17:00:58.385Z,93772.74
2019-05-09T17:03:28.465Z,93767.00
2019-05-09T17:05:58.394Z,93767.00
2019-05-09T17:08:28.399Z,93769.42
2019-05-09T17:10:58.740Z,93769.13
2019-05-09T17:13:29.054Z,93777.87
2019-05-09T17:15:58.624Z,93777.22
2019-05-09T17:18:28.535Z,93783.42
2019-05-09T17:21:00.050Z,93787.58
2019-05-09T17:23:30.013Z,93806.64
2019-05-09T17:25:59.488Z,93814.17
2019-05-09T17:28:29.015Z,93826.66
2019-05-09T17:30:58.504Z,93840.63
2019-05-09T17:33:28.647Z,93832.56
2019-05-09T17:35:58.373Z,93842.05
2019-05-09T17:38:28.043Z,93839.86
2019-05-09T17:40:57.909Z,93843.09
2019-05-09T17:43:27.976Z,93840.63
2019-05-09T17:45:58.647Z,93842.25
2019-05-09T17:48:28.824Z,93849.97
2019-05-09T17:50:58.438Z,93841.84
2019-05-09T17:53:29.315Z,93845.94
2019-05-09T17:55:59.166Z,93847.97
2019-05-09T17:58:33.000Z,93853.62
2019-05-09T18:00:59.952Z,93855.17
2019-05-09T18:03:29.442Z,93859.43
2019-05-09T18:05:58.935Z,93850.93
2019-05-09T18:08:28.596Z,93868.48
2019-05-09T18:10:58.551Z,93876.25
2019-05-09T18:13:30.594Z,93877.37
2019-05-09T18:15:59.398Z,93884.94
2019-05-09T18:18:28.906Z,93884.56
2019-05-09T18:20:58.424Z,93893.44
2019-05-09T18:23:28.483Z,93902.97
2019-05-09T18:25:58.760Z,93893.95
2019-05-09T18:28:29.344Z,93891.50
2019-05-09T18:30:58.877Z,93909.55
2019-05-09T18:33:30.082Z,93906.72
2019-05-09T18:35:59.634Z,93905.02
2019-05-09T18:38:32.640Z,93902.77
2019-05-09T18:41:02.640Z,93909.27
2019-05-09T18:43:32.266Z,93907.42
2019-05-09T18:46:01.755Z,93912.47
2019-05-09T18:48:31.368Z,93910.40
2019-05-09T18:51:00.866Z,93922.22
2019-05-09T18:53:30.374Z,93922.04
2019-05-09T18:56:00.025Z,93927.14
2019-05-09T18:58:29.520Z,93939.66
2019-05-09T19:00:59.593Z,93949.31
2019-05-09T19:03:29.122Z,93952.05
2019-05-09T19:05:58.629Z,93954.91
2019-05-09T19:08:28.116Z,93952.47
2019-05-09T19:10:57.669Z,93955.56
2019-05-09T19:13:40.397Z,93960.60
2019-05-09T19:16:17.289Z,93961.98
2019-05-09T19:18:54.162Z,93965.37
2019-05-09T19:21:28.016Z,93960.47
2019-05-09T19:23:57.498Z,93967.36
2019-05-09T19:26:28.619Z,93968.97
2019-05-09T19:28:58.135Z,93980.50
2019-05-09T19:31:27.586Z,93985.48
2019-05-09T19:33:57.095Z,93992.44
2019-05-09T19:36:26.661Z,93988.63
2019-05-09T19:38:56.166Z,94004.78
2019-05-09T19:41:25.655Z,94004.00
2019-05-09T19:43:55.131Z,94016.11
2019-05-09T19:46:24.669Z,94012.88
2019-05-09T19:48:54.141Z,94014.29
2019-05-09T19:51:23.628Z,94013.41
2019-05-09T19:53:53.134Z,94028.67
2019-05-09T19:56:22.821Z,94025.33
2019-05-09T19:58:52.389Z,94032.00
2019-05-09T20:01:21.868Z,94037.13
2019-05-09T20:03:51.370Z,94042.59
2019-05-09T20:06:20.933Z,94052.83
2019-05-09T20:08:50.462Z,94054.44
2019-05-09T20:11:37.349Z,94059.48
2019-05-09T20:14:11.607Z,94061.20
2019-05-09T20:16:48.744Z,94066.45
2019-05-09T20:19:18.236Z,94067.28
2019-05-09T20:21:47.734Z,94068.58
2019-05-09T20:24:17.254Z,94067.56
2019-05-09T20:26:46.719Z,94071.63
2019-05-09T20:29:16.794Z,94071.83
2019-05-09T20:31:46.359Z,94074.75
2019-05-09T20:34:15.852Z,94075.88
2019-05-09T20:36:45.328Z,94076.98
2019-05-09T20:39:15.025Z,94083.34
2019-05-09T20:41:45.397Z,94081.31
2019-05-09T20:44:15.027Z,94078.89
2019-05-09T20:46:44.708Z,94090.20
2019-05-09T20:49:14.389Z,94092.52
2019-05-09T20:51:44.052Z,94092.84
2019-05-09T20:54:21.019Z,94091.55
2019-05-09T20:56:45.146Z,94094.75
2019-05-09T20:59:14.822Z,94101.34
2019-05-09T21:01:44.524Z,94105.90
2019-05-09T21:04:14.230Z,94100.44
2019-05-09T21:06:43.910Z,94107.01
2019-05-09T21:09:13.583Z,94110.72
2019-05-09T21:11:43.292Z,94118.47
2019-05-09T21:14:12.926Z,94132.81
2019-05-09T21:16:42.624Z,94140.80
2019-05-09T21:19:12.301Z,94140.91
2019-05-09T21:21:41.978Z,94146.05
2019-05-09T21:24:11.721Z,94136.97
2019-05-09T21:26:41.398Z,94135.02
2019-05-09T21:29:11.067Z,94145.03
2019-05-09T21:31:40.742Z,94146.00
2019-05-09T21:34:10.860Z,94146.34
2019-05-09T21:36:40.529Z,94147.77
2019-05-09T21:39:10.035Z,94146.00
2019-05-09T21:41:39.518Z,94154.37
2019-05-09T21:44:09.077Z,94152.95
2019-05-09T21:46:38.939Z,94152.28
2019-05-09T21:49:08.442Z,94155.16
2019-05-09T21:51:37.985Z,94155.09
2019-05-09T21:54:07.453Z,94161.09
2019-05-09T21:56:36.944Z,94160.70
2019-05-09T21:59:07.322Z,94166.27
2019-05-09T22:01:36.942Z,94164.88
2019-05-09T22:04:06.465Z,94175.55
2019-05-09T22:06:36.012Z,94171.70
2019-05-09T22:09:09.729Z,94163.59
2019-05-09T22:11:39.415Z,94171.13
2019-05-09T22:14:08.875Z,94179.94
2019-05-09T22:16:38.504Z,94180.72
2019-05-09T22:19:07.979Z,94177.16
2019-05-09T22:21:37.545Z,94179.29
2019-05-09T22:24:07.076Z,94189.66
2019-05-09T22:26:36.558Z,94184.97
2019-05-09T22:29:06.105Z,94191.23
2019-05-09T22:31:35.620Z,94192.90
2019-05-09T22:34:05.100Z,94198.23
2019-05-09T22:36:34.594Z,94198.84
2019-05-09T22:39:05.299Z,94206.09
2019-05-09T22:41:34.970Z,94208.40
2019-05-09T22:44:04.556Z,94204.64
2019-05-09T22:46:34.029Z,94207.49
2019-05-09T22:49:03.550Z,94216.44
2019-05-09T22:51:33.756Z,94213.93
2019-05-09T22:54:12.333Z,94219.30
2019-05-09T22:56:34.453Z,94218.25
2019-05-09T22:59:03.957Z,94207.27
2019-05-09T23:01:33.426Z,94214.75
2019-05-09T23:04:02.910Z,94220.49
2019-05-09T23:06:32.402Z,94216.23
2019-05-09T23:09:01.882Z,94220.14
2019-05-09T23:11:31.370Z,94220.98
2019-05-09T23:14:00.874Z,94225.68
2019-05-09T23:16:32.003Z,94233.81
2019-05-09T23:19:01.497Z,94230.55
2019-05-09T23:21:30.954Z,94234.19
2019-05-09T23:24:05.056Z,94227.05
2019-05-09T23:26:34.544Z,94234.75
2019-05-09T23:29:23.376Z,94232.35
2019-05-09T23:32:24.433Z,94230.81
2019-05-09T23:35:13.258Z,94233.61
2019-05-09T23:37:42.735Z,94230.44
2019-05-09T23:40:12.752Z,94230.98
2019-05-09T23:42:42.216Z,94222.80
2019-05-09T23:45:11.792Z,94229.61
2019-05-09T23:47:41.258Z,94227.86
2019-05-09T23:50:10.957Z,94235.81
2019-05-09T23:52:40.401Z,94227.59
2019-05-09T23:55:27.779Z,94228.12
2019-05-09T23:58:14.751Z,94224.77
